Time;durP1;ratioP1;P1;durP2;ratioP2;P2;SDS_P1;SDS_P2;PMS_P1;PMS_P2;Temp;Humidity;BMP_temperature;BMP_pressure;BME280_temperature;BME280_humidity;BME280_pressure;Samples;Min_cycle;Max_cycle;Signal;HPM_P1;HPM_P2
2022/05/05 00:01:50;;;;;;;;;;;13.70;1.00;;;;;;5074397;28;20314;-87
2022/05/05 00:04:38;;;;;;;;;;;13.70;1.00;;;;;;5089657;28;19919;-86
2022/05/05 00:07:08;;;;;;;;;;;13.70;1.00;;;;;;5100243;28;19943;-87
2022/05/05 00:09:38;;;;;;;;;;;13.70;1.00;;;;;;5090417;28;19909;-87
2022/05/05 00:18:03;;;;;;;;;;;13.60;1.00;;;;;;5093290;28;19973;-86
2022/05/05 00:20:38;;;;;;;;;;;13.60;1.00;;;;;;5080090;28;19909;-77
2022/05/05 00:23:04;;;;;;;;;;;13.60;1.00;;;;;;5081886;28;19912;-77
2022/05/05 00:25:32;;;;;;;;;;;13.60;1.00;;;;;;5076705;28;19919;-77
2022/05/05 00:28:02;;;;;;;;;;;13.60;1.00;;;;;;5084811;28;19944;-76
2022/05/05 00:30:38;;;;;;;;;;;13.60;1.00;;;;;;5079112;28;20447;-77
2022/05/05 00:33:04;;;;;;;;;;;13.60;1.00;;;;;;5075588;28;19916;-76
2022/05/05 00:35:32;;;;;;;;;;;13.60;1.00;;;;;;5094561;28;20041;-76
2022/05/05 00:37:58;;;;;;;;;;;13.60;1.00;;;;;;5084275;28;19909;-76
2022/05/05 00:40:26;;;;;;;;;;;13.60;1.00;;;;;;5097203;28;19908;-76
2022/05/05 00:42:52;;;;;;;;;;;13.60;1.00;;;;;;5085795;28;19912;-76
2022/05/05 00:45:18;;;;;;;;;;;13.50;1.00;;;;;;5081177;28;19913;-76
2022/05/05 00:47:56;;;;;;;;;;;13.50;1.00;;;;;;5082344;28;19915;-76
2022/05/05 00:50:22;;;;;;;;;;;13.50;1.00;;;;;;5097900;28;20311;-77
2022/05/05 00:52:50;;;;;;;;;;;13.50;1.00;;;;;;5077280;28;19974;-76
2022/05/05 00:55:16;;;;;;;;;;;13.40;1.00;;;;;;5086661;28;19955;-76
2022/05/05 00:57:44;;;;;;;;;;;13.30;1.00;;;;;;5090988;28;19915;-76
2022/05/05 01:00:11;;;;;;;;;;;13.30;1.00;;;;;;5097935;28;19934;-77
2022/05/05 01:02:36;;;;;;;;;;;13.30;1.00;;;;;;5084342;28;19915;-76
2022/05/05 01:05:05;;;;;;;;;;;13.30;1.00;;;;;;5088555;28;20312;-83
2022/05/05 01:07:38;;;;;;;;;;;13.30;1.00;;;;;;5077950;28;20375;-86
2022/05/05 01:10:38;;;;;;;;;;;13.30;1.00;;;;;;5078081;28;20309;-86
2022/05/05 01:13:08;;;;;;;;;;;13.30;1.00;;;;;;5087126;28;19909;-86
2022/05/05 01:15:39;;;;;;;;;;;13.30;1.00;;;;;;5096729;28;19920;-86
2022/05/05 01:18:08;;;;;;;;;;;13.20;1.00;;;;;;5089921;28;19916;-86
2022/05/05 01:20:54;;;;;;;;;;;13.20;1.00;;;;;;5088014;28;19966;-77
2022/05/05 01:23:20;;;;;;;;;;;13.20;1.00;;;;;;5087370;28;19966;-76
2022/05/05 01:28:48;;;;;;;;;;;13.20;1.00;;;;;;5090927;28;19935;-76
2022/05/05 01:31:14;;;;;;;;;;;13.20;1.00;;;;;;5087202;28;20355;-76
2022/05/05 01:33:40;;;;;;;;;;;13.20;1.00;;;;;;5083027;28;19913;-76
2022/05/05 01:45:38;;;;;;;;;;;13.20;1.00;;;;;;5078575;28;19919;-86
2022/05/05 01:48:04;;;;;;;;;;;13.20;1.00;;;;;;5092636;27;19912;-86
2022/05/05 01:53:38;;;;;;;;;;;13.20;1.00;;;;;;5077372;28;20297;-87
2022/05/05 01:59:08;;;;;;;;;;;13.20;1.00;;;;;;5089542;28;19908;-86
2022/05/05 02:01:38;;;;;;;;;;;13.20;1.00;;;;;;5096039;28;19944;-87
2022/05/05 02:04:04;;;;;;;;;;;13.20;1.00;;;;;;5083803;28;19913;-87
2022/05/05 02:13:09;;;;;;;;;;;13.20;1.00;;;;;;5092983;28;19915;-86
2022/05/05 02:15:38;;;;;;;;;;;13.20;1.00;;;;;;5077651;28;20011;-87
2022/05/05 02:18:32;;;;;;;;;;;13.20;1.00;;;;;;5076546;28;20008;-87
2022/05/05 02:20:58;;;;;;;;;;;13.20;1.00;;;;;;5075579;28;20271;-77
2022/05/05 02:23:24;;;;;;;;;;;13.20;1.00;;;;;;5080035;28;19912;-76
2022/05/05 02:25:57;;;;;;;;;;;13.20;1.00;;;;;;5096421;28;19912;-76
2022/05/05 02:28:23;;;;;;;;;;;13.30;1.00;;;;;;5083918;28;19919;-76
2022/05/05 02:30:48;;;;;;;;;;;13.30;1.00;;;;;;5081637;28;20328;-76
2022/05/05 02:33:14;;;;;;;;;;;13.20;1.00;;;;;;5096067;28;19942;-76
2022/05/05 02:35:40;;;;;;;;;;;13.20;1.00;;;;;;5094564;28;19913;-76
2022/05/05 02:38:42;;;;;;;;;;;13.20;1.00;;;;;;5090013;28;19916;-87
2022/05/05 02:41:38;;;;;;;;;;;13.10;1.00;;;;;;5086607;28;20355;-87
2022/05/05 02:44:20;;;;;;;;;;;13.10;1.00;;;;;;5076508;28;19965;-87
2022/05/05 02:47:08;;;;;;;;;;;13.10;1.00;;;;;;5076042;28;19909;-87
2022/05/05 02:50:08;;;;;;;;;;;13.00;1.00;;;;;;5076035;28;19908;-87
2022/05/05 02:52:38;;;;;;;;;;;13.10;1.00;;;;;;5076823;28;20359;-87
2022/05/05 02:55:08;;;;;;;;;;;13.10;1.00;;;;;;5084321;28;19917;-87
2022/05/05 02:58:08;;;;;;;;;;;13.10;1.00;;;;;;5075875;28;19920;-87
2022/05/05 03:01:08;;;;;;;;;;;13.00;1.00;;;;;;5074947;28;19909;-87
2022/05/05 03:03:38;;;;;;;;;;;13.00;1.00;;;;;;5076319;28;19909;-87
2022/05/05 03:06:08;;;;;;;;;;;13.00;1.00;;;;;;5076161;28;19909;-87
2022/05/05 03:09:08;;;;;;;;;;;13.00;1.00;;;;;;5076657;28;19963;-87
2022/05/05 03:12:08;;;;;;;;;;;13.10;1.00;;;;;;5075898;28;19916;-87
2022/05/05 03:14:38;;;;;;;;;;;13.00;1.00;;;;;;5078989;28;19962;-87
2022/05/05 03:17:04;;;;;;;;;;;13.00;1.00;;;;;;5076105;28;19920;-87
2022/05/05 03:22:38;;;;;;;;;;;13.00;1.00;;;;;;5075768;28;19923;-76
2022/05/05 03:25:32;;;;;;;;;;;13.00;1.00;;;;;;5075675;28;19919;-76
2022/05/05 03:28:03;;;;;;;;;;;13.00;1.00;;;;;;5075016;28;19908;-76
2022/05/05 03:30:28;;;;;;;;;;;12.90;1.00;;;;;;5075222;28;19935;-76
2022/05/05 03:33:08;;;;;;;;;;;12.90;1.00;;;;;;5085138;28;19915;-76
2022/05/05 03:35:34;;;;;;;;;;;12.90;1.00;;;;;;5079095;28;19916;-76
2022/05/05 03:38:02;;;;;;;;;;;12.90;1.00;;;;;;5093502;28;19916;-76
2022/05/05 03:40:33;;;;;;;;;;;12.90;1.00;;;;;;5081420;28;20362;-76
2022/05/05 03:43:03;;;;;;;;;;;12.90;1.00;;;;;;5082346;28;19912;-75
2022/05/05 03:45:28;;;;;;;;;;;12.90;1.00;;;;;;5075366;28;19954;-76
2022/05/05 03:48:09;;;;;;;;;;;12.90;1.00;;;;;;5074507;28;19909;-76
2022/05/05 03:50:38;;;;;;;;;;;12.90;1.00;;;;;;5083438;28;19912;-76
2022/05/05 03:53:05;;;;;;;;;;;12.80;1.00;;;;;;5095023;28;19970;-76
2022/05/05 03:55:30;;;;;;;;;;;12.90;1.00;;;;;;5078540;28;19935;-76
2022/05/05 03:57:56;;;;;;;;;;;12.80;1.00;;;;;;5089897;28;20359;-76
2022/05/05 04:00:27;;;;;;;;;;;12.80;1.00;;;;;;5092421;28;19987;-76
2022/05/05 04:05:44;;;;;;;;;;;12.70;1.00;;;;;;5075117;28;19920;-76
2022/05/05 04:08:15;;;;;;;;;;;12.70;1.00;;;;;;5092567;28;19932;-78
2022/05/05 04:11:02;;;;;;;;;;;12.80;1.00;;;;;;5085693;28;19909;-85
2022/05/05 04:19:34;;;;;;;;;;;12.80;1.00;;;;;;5075012;28;19939;-74
2022/05/05 04:21:59;;;;;;;;;;;12.80;1.00;;;;;;5052998;28;19920;-75
2022/05/05 04:24:25;;;;;;;;;;;12.80;1.00;;;;;;5067655;28;19913;-74
2022/05/05 04:26:51;;;;;;;;;;;12.80;1.00;;;;;;5066740;28;19913;-74
2022/05/05 04:29:27;;;;;;;;;;;12.80;1.00;;;;;;5074133;28;19912;-74
2022/05/05 04:31:57;;;;;;;;;;;12.70;1.00;;;;;;5073268;28;19909;-74
2022/05/05 04:34:39;;;;;;;;;;;12.70;1.00;;;;;;5068058;28;19913;-73
2022/05/05 04:37:08;;;;;;;;;;;12.70;1.00;;;;;;5056219;28;19919;-73
2022/05/05 04:39:34;;;;;;;;;;;12.70;1.00;;;;;;5069542;28;19978;-74
2022/05/05 04:42:00;;;;;;;;;;;12.80;1.00;;;;;;5072975;28;20332;-74
2022/05/05 04:44:25;;;;;;;;;;;12.80;1.00;;;;;;5054890;28;20019;-74
2022/05/05 04:47:08;;;;;;;;;;;12.80;1.00;;;;;;5068481;28;19931;-86
2022/05/05 04:52:39;;;;;;;;;;;12.80;1.00;;;;;;5055223;28;19958;-76
2022/05/05 04:55:04;;;;;;;;;;;12.80;1.00;;;;;;5063944;28;19939;-75
2022/05/05 04:57:38;;;;;;;;;;;12.80;1.00;;;;;;5065889;28;20318;-75
2022/05/05 05:00:09;;;;;;;;;;;12.90;1.00;;;;;;5060305;28;19909;-74
2022/05/05 05:02:35;;;;;;;;;;;12.90;1.00;;;;;;5069121;28;19919;-75
2022/05/05 05:05:03;;;;;;;;;;;12.90;1.00;;;;;;5066125;28;19909;-75
2022/05/05 05:07:38;;;;;;;;;;;12.90;1.00;;;;;;5067437;28;19962;-75
2022/05/05 05:10:04;;;;;;;;;;;13.00;1.00;;;;;;5062533;28;19958;-75
2022/05/05 05:12:30;;;;;;;;;;;13.00;1.00;;;;;;5073326;28;19909;-75
2022/05/05 05:14:55;;;;;;;;;;;13.00;1.00;;;;;;5068929;28;19919;-75
2022/05/05 05:17:27;;;;;;;;;;;13.00;1.00;;;;;;5090573;28;19959;-74
2022/05/05 05:19:53;;;;;;;;;;;13.00;1.00;;;;;;5084183;28;20377;-74
2022/05/05 05:22:18;;;;;;;;;;;13.00;1.00;;;;;;5082807;28;19912;-75
2022/05/05 05:24:44;;;;;;;;;;;13.00;1.00;;;;;;5086000;28;20316;-83
2022/05/05 05:27:38;;;;;;;;;;;13.00;1.00;;;;;;5097542;28;19908;-85
2022/05/05 05:30:38;;;;;;;;;;;13.10;1.00;;;;;;5094272;28;19908;-85
2022/05/05 05:33:09;;;;;;;;;;;13.10;1.00;;;;;;5096264;28;19915;-85
2022/05/05 05:38:38;;;;;;;;;;;13.10;1.00;;;;;;5112225;28;19963;-75
2022/05/05 05:41:09;;;;;;;;;;;13.20;1.00;;;;;;5086116;28;19956;-75
2022/05/05 05:43:39;;;;;;;;;;;13.20;1.00;;;;;;5089484;28;20405;-74
2022/05/05 05:46:09;;;;;;;;;;;13.20;1.00;;;;;;5077179;28;20007;-76
2022/05/05 05:48:38;;;;;;;;;;;13.20;1.00;;;;;;5086199;28;20370;-75
2022/05/05 05:51:05;;;;;;;;;;;13.30;1.00;;;;;;5095310;28;19908;-75
2022/05/05 05:54:08;;;;;;;;;;;13.30;1.00;;;;;;5091789;28;20334;-85
2022/05/05 05:56:34;;;;;;;;;;;13.30;1.00;;;;;;5077624;28;19916;-86
2022/05/05 05:59:08;;;;;;;;;;;13.30;1.00;;;;;;5075947;28;19908;-86
2022/05/05 06:04:39;;;;;;;;;;;13.40;1.00;;;;;;5081860;28;20536;-86
2022/05/05 06:07:08;;;;;;;;;;;13.50;1.00;;;;;;5087501;28;19908;-86
2022/05/05 06:09:38;;;;;;;;;;;13.60;1.00;;;;;;5079767;28;19916;-86
2022/05/05 06:12:04;;;;;;;;;;;13.60;1.00;;;;;;5076035;28;19920;-87
2022/05/05 06:14:30;;;;;;;;;;;13.70;1.00;;;;;;5092034;28;19912;-87
2022/05/05 06:16:56;;;;;;;;;;;13.70;1.00;;;;;;5081385;28;19920;-88
2022/05/05 06:19:21;;;;;;;;;;;13.70;1.00;;;;;;5095483;28;19923;-87
2022/05/05 06:21:47;;;;;;;;;;;13.80;1.00;;;;;;5099354;28;20158;-87
2022/05/05 06:24:12;;;;;;;;;;;13.90;1.00;;;;;;5079497;28;19972;-87
2022/05/05 06:26:38;;;;;;;;;;;13.80;1.00;;;;;;5076914;28;19920;-87
2022/05/05 06:29:08;;;;;;;;;;;13.90;1.00;;;;;;5096633;28;19961;-88
2022/05/05 06:31:34;;;;;;;;;;;13.90;1.00;;;;;;5089363;28;19913;-87
2022/05/05 06:34:00;;;;;;;;;;;14.00;1.00;;;;;;5096663;28;20263;-88
2022/05/05 06:36:38;;;;;;;;;;;14.00;1.00;;;;;;5086772;28;20054;-88
2022/05/05 06:39:08;;;;;;;;;;;14.10;1.00;;;;;;5087589;28;19998;-87
2022/05/05 06:41:38;;;;;;;;;;;14.20;1.00;;;;;;5081465;28;19908;-88
2022/05/05 06:44:08;;;;;;;;;;;14.20;1.00;;;;;;5076220;28;19909;-88
2022/05/05 06:47:08;;;;;;;;;;;14.30;1.00;;;;;;5088223;28;19962;-88
2022/05/05 06:49:38;;;;;;;;;;;14.30;1.00;;;;;;5081936;28;19950;-88
2022/05/05 06:52:38;;;;;;;;;;;14.30;1.00;;;;;;5074976;28;19908;-88
2022/05/05 06:55:04;;;;;;;;;;;14.40;1.00;;;;;;5088776;28;19912;-88
2022/05/05 07:06:31;;;;;;;;;;;14.50;1.00;;;;;;5076279;28;20095;-88
2022/05/05 07:11:47;;;;;;;;;;;14.60;1.00;;;;;;5075692;28;19919;-76
2022/05/05 07:14:12;;;;;;;;;;;14.60;1.00;;;;;;5080317;28;20007;-76
2022/05/05 07:16:45;;;;;;;;;;;14.70;1.00;;;;;;5083690;28;19987;-76
2022/05/05 07:19:20;;;;;;;;;;;14.70;1.00;;;;;;5077582;28;19918;-76
2022/05/05 07:21:51;;;;;;;;;;;14.80;1.00;;;;;;5089621;28;19965;-76
2022/05/05 07:39:31;;;;;;;;;;;16.00;1.00;;;;;;5075525;28;19918;-77
2022/05/05 07:41:57;;;;;;;;;;;16.20;1.00;;;;;;5088689;28;19917;-77
2022/05/05 07:44:23;;;;;;;;;;;16.30;1.00;;;;;;5092378;28;19912;-77
2022/05/05 07:46:48;;;;;;;;;;;16.50;1.00;;;;;;5090970;28;20006;-78
2022/05/05 07:49:45;;;;;;;;;;;16.70;1.00;;;;;;5069193;28;19999;-77
2022/05/05 07:52:20;;;;;;;;;;;16.90;1.00;;;;;;5082914;28;19916;-77
2022/05/05 07:58:14;;;;;;;;;;;17.00;1.00;;;;;;5081370;28;19942;-88
2022/05/05 08:01:14;;;;;;;;;;;17.00;99.90;;;;;;5076519;28;20346;-88
2022/05/05 08:03:40;;;;;;;;;;;16.90;99.90;;;;;;5088158;28;19923;-88
2022/05/05 08:06:05;;;;;;;;;;;16.90;99.90;;;;;;5091249;28;19912;-88
2022/05/05 08:08:31;;;;;;;;;;;17.00;99.90;;;;;;5093460;28;19908;-87
2022/05/05 08:11:02;;;;;;;;;;;16.80;99.90;;;;;;5090012;28;20363;-86
2022/05/05 08:13:28;;;;;;;;;;;16.80;99.90;;;;;;5086153;28;19912;-87
2022/05/05 08:15:53;;;;;;;;;;;16.70;99.90;;;;;;5096647;28;19930;-88
2022/05/05 08:18:19;;;;;;;;;;;16.60;99.90;;;;;;5086254;28;19981;-88
2022/05/05 08:20:44;;;;;;;;;;;16.50;99.90;;;;;;5092365;28;19923;-87
2022/05/05 08:23:10;;;;;;;;;;;16.40;99.90;;;;;;5088146;28;19991;-86
2022/05/05 08:28:28;;;;;;;;;;;16.20;99.90;;;;;;5093492;28;19935;-88
2022/05/05 08:30:54;;;;;;;;;;;16.20;99.90;;;;;;5084225;28;19916;-83
2022/05/05 08:33:20;;;;;;;;;;;16.20;1.00;;;;;;5078818;28;19913;-83
2022/05/05 08:35:45;;;;;;;;;;;16.20;1.00;;;;;;5088389;28;19938;-82
2022/05/05 08:38:13;;;;;;;;;;;16.20;1.00;;;;;;5088876;28;19912;-88
2022/05/05 08:40:39;;;;;;;;;;;16.20;1.00;;;;;;5090645;28;20004;-87
2022/05/05 08:43:05;;;;;;;;;;;16.20;1.00;;;;;;5093015;28;20366;-87
2022/05/05 08:45:30;;;;;;;;;;;16.20;1.00;;;;;;5084186;28;19912;-87
2022/05/05 08:47:58;;;;;;;;;;;16.40;1.00;;;;;;5097812;28;19913;-81
2022/05/05 08:50:24;;;;;;;;;;;16.50;1.00;;;;;;5092205;28;19912;-83
2022/05/05 08:52:50;;;;;;;;;;;16.70;1.00;;;;;;5091493;28;20045;-83
2022/05/05 08:55:16;;;;;;;;;;;16.90;99.90;;;;;;5093669;28;20329;-81
2022/05/05 08:57:45;;;;;;;;;;;17.20;99.90;;;;;;5106801;28;20386;-81
2022/05/05 09:00:15;;;;;;;;;;;17.50;99.90;;;;;;5097177;28;19918;-81
2022/05/05 09:02:59;;;;;;;;;;;17.60;99.90;;;;;;5090869;28;20275;-81
2022/05/05 09:05:44;;;;;;;;;;;17.90;99.90;;;;;;5095834;28;19912;-81
2022/05/05 09:08:28;;;;;;;;;;;18.20;99.90;;;;;;5118148;27;19912;-81
2022/05/05 09:11:04;;;;;;;;;;;18.50;99.90;;;;;;5091644;28;19916;-83
2022/05/05 09:16:33;;;;;;;;;;;18.80;99.90;;;;;;5094079;28;19957;-81
2022/05/05 09:19:01;;;;;;;;;;;19.00;99.90;;;;;;5116421;27;19908;-83
2022/05/05 09:21:38;;;;;;;;;;;19.00;99.90;;;;;;5077568;28;19973;-87
2022/05/05 09:26:57;;;;;;;;;;;19.20;99.90;;;;;;5090129;28;20278;-77
2022/05/05 09:29:32;;;;;;;;;;;19.30;99.90;;;;;;5084041;28;19908;-77
2022/05/05 09:32:10;;;;;;;;;;;19.30;99.90;;;;;;5096973;28;19914;-76
2022/05/05 09:34:39;;;;;;;;;;;19.40;99.90;;;;;;5097306;28;19908;-76
2022/05/05 09:37:17;;;;;;;;;;;19.40;99.90;;;;;;5094784;28;19916;-76
2022/05/05 09:39:43;;;;;;;;;;;19.40;99.90;;;;;;5088966;28;19931;-76
2022/05/05 09:42:32;;;;;;;;;;;19.50;99.90;;;;;;5097351;28;20359;-76
2022/05/05 09:45:29;;;;;;;;;;;19.60;99.90;;;;;;5097138;28;19915;-77
2022/05/05 09:48:03;;;;;;;;;;;19.80;99.90;;;;;;5073893;28;19979;-76
2022/05/05 09:50:30;;;;;;;;;;;20.00;99.90;;;;;;5073495;28;20530;-76
2022/05/05 09:58:59;;;;;;;;;;;20.20;99.90;;;;;;5074776;28;19916;-83
2022/05/05 10:01:31;;;;;;;;;;;20.30;99.90;;;;;;5057373;28;19916;-83
2022/05/05 10:04:03;;;;;;;;;;;20.30;99.90;;;;;;5073966;28;20368;-83
2022/05/05 10:06:34;;;;;;;;;;;20.40;99.90;;;;;;5074071;28;19908;-83
2022/05/05 10:09:14;;;;;;;;;;;20.40;99.90;;;;;;5061834;28;19928;-83
2022/05/05 10:11:57;;;;;;;;;;;20.50;99.90;;;;;;5067663;28;19962;-83
2022/05/05 10:14:27;;;;;;;;;;;20.60;99.90;;;;;;5053963;28;19909;-83
2022/05/05 10:17:15;;;;;;;;;;;20.60;99.90;;;;;;5058460;28;19927;-83
2022/05/05 10:19:45;;;;;;;;;;;20.60;99.90;;;;;;5044710;28;19947;-83
2022/05/05 10:22:26;;;;;;;;;;;20.50;99.90;;;;;;5073403;28;19923;-84
2022/05/05 10:28:15;;;;;;;;;;;20.30;99.90;;;;;;5093475;28;20007;-84
2022/05/05 10:30:45;;;;;;;;;;;20.20;99.90;;;;;;5087924;28;19908;-83
2022/05/05 10:33:15;;;;;;;;;;;20.10;99.90;;;;;;5088052;28;19908;-82
2022/05/05 10:35:47;;;;;;;;;;;20.00;99.90;;;;;;5084134;28;19943;-74
2022/05/05 10:38:39;;;;;;;;;;;20.00;99.90;;;;;;5093244;28;19951;-73
2022/05/05 10:41:33;;;;;;;;;;;20.00;99.90;;;;;;5079161;28;19956;-72
2022/05/05 10:44:19;;;;;;;;;;;20.00;99.90;;;;;;5087558;28;19913;-72
2022/05/05 10:49:47;;;;;;;;;;;19.80;99.90;;;;;;5088493;28;19920;-80
2022/05/05 10:52:21;;;;;;;;;;;19.70;99.90;;;;;;5105678;28;19919;-81
2022/05/05 10:54:53;;;;;;;;;;;19.60;99.90;;;;;;5095416;28;19958;-81
2022/05/05 10:57:45;;;;;;;;;;;19.50;99.90;;;;;;5116671;27;20366;-80
2022/05/05 11:03:15;;;;;;;;;;;19.50;99.90;;;;;;5083626;28;19957;-80
2022/05/05 11:06:11;;;;;;;;;;;19.60;99.90;;;;;;5093807;28;19915;-84
2022/05/05 11:08:51;;;;;;;;;;;19.80;99.90;;;;;;5095169;28;19991;-85
2022/05/05 11:21:32;;;;;;;;;;;20.20;99.90;;;;;;5095368;28;19949;-78
2022/05/05 11:22:44;;;;;;;;;;;21.40;99.90;;;;;;5065143;28;19923;-77
2022/05/05 11:25:10;;;;;;;;;;;21.60;99.90;;;;;;5054694;28;20339;-77
2022/05/05 11:27:36;;;;;;;;;;;21.80;99.90;;;;;;5051781;28;19940;-77
2022/05/05 11:30:02;;;;;;;;;;;22.10;99.90;;;;;;5070728;28;20013;-78
2022/05/05 11:32:33;;;;;;;;;;;22.40;99.90;;;;;;5057280;28;19913;-77
2022/05/05 11:34:59;;;;;;;;;;;22.70;99.90;;;;;;5072225;28;19944;-77
2022/05/05 11:37:44;;;;;;;;;;;22.60;99.90;;;;;;5047827;28;19999;-78
2022/05/05 11:40:15;;;;;;;;;;;22.70;99.90;;;;;;5061918;28;19913;-78
2022/05/05 11:45:57;;;;;;;;;;;22.80;99.90;;;;;;5072820;28;20019;-86
2022/05/05 11:51:29;;;;;;;;;;;23.10;99.90;;;;;;5069014;28;19970;-88
2022/05/05 11:56:58;;;;;;;;;;;23.30;99.90;;;;;;5078128;28;19919;-85
2022/05/05 12:02:29;;;;;;;;;;;23.20;99.90;;;;;;5094613;28;20420;-85
2022/05/05 12:07:58;;;;;;;;;;;23.60;99.90;;;;;;5086462;28;19915;-86
2022/05/05 12:13:28;;;;;;;;;;;23.60;99.90;;;;;;5075718;28;19919;-85
2022/05/05 12:16:15;;;;;;;;;;;23.70;99.90;;;;;;5107138;28;19924;-83
2022/05/05 12:21:53;;;;;;;;;;;23.20;99.90;;;;;;5080530;28;19977;-83
2022/05/05 12:24:33;;;;;;;;;;;23.00;99.90;;;;;;5081371;28;20278;-83
2022/05/05 12:27:06;;;;;;;;;;;22.90;99.90;;;;;;5088113;28;19963;-78
2022/05/05 12:29:45;;;;;;;;;;;23.00;99.90;;;;;;5099552;28;20382;-79
2022/05/05 12:32:12;;;;;;;;;;;23.20;99.90;;;;;;5098053;28;20369;-80
2022/05/05 12:34:39;;;;;;;;;;;23.40;99.90;;;;;;5087266;28;20279;-79
2022/05/05 12:37:08;;;;;;;;;;;23.70;99.90;;;;;;5088775;28;19923;-78
2022/05/05 12:39:34;;;;;;;;;;;23.90;99.90;;;;;;5097019;28;19919;-79
2022/05/05 12:42:00;;;;;;;;;;;24.10;99.90;;;;;;5096420;28;19908;-81
2022/05/05 12:44:32;;;;;;;;;;;24.20;99.90;;;;;;5097288;28;19916;-81
2022/05/05 12:47:04;;;;;;;;;;;24.40;99.90;;;;;;5130022;27;19908;-80
2022/05/05 12:49:34;;;;;;;;;;;24.50;99.90;;;;;;5097058;28;19915;-80
2022/05/05 12:52:00;;;;;;;;;;;24.60;99.90;;;;;;5095159;28;20326;-77
2022/05/05 12:59:55;;;;;;;;;;;24.80;99.90;;;;;;5096943;28;19993;-77
2022/05/05 13:02:20;;;;;;;;;;;24.80;99.90;;;;;;5081093;28;19957;-77
2022/05/05 13:04:48;;;;;;;;;;;24.60;99.90;;;;;;5094862;28;19998;-77
2022/05/05 13:07:14;;;;;;;;;;;24.50;99.90;;;;;;5076679;28;19923;-77
2022/05/05 13:09:40;;;;;;;;;;;24.40;99.90;;;;;;5094375;28;20355;-76
2022/05/05 13:12:05;;;;;;;;;;;24.30;99.90;;;;;;5096813;28;19919;-79
2022/05/05 13:14:31;;;;;;;;;;;24.20;99.90;;;;;;5096841;28;20347;-77
2022/05/05 13:16:57;;;;;;;;;;;24.30;99.90;;;;;;5093189;28;19920;-77
2022/05/05 13:19:24;;;;;;;;;;;24.60;99.90;;;;;;5096540;28;20380;-77
2022/05/05 13:21:49;;;;;;;;;;;24.80;99.90;;;;;;5094411;28;19916;-77
2022/05/05 13:24:15;;;;;;;;;;;25.00;99.90;;;;;;5095080;28;19935;-77
2022/05/05 13:26:42;;;;;;;;;;;25.10;99.90;;;;;;5093682;28;19912;-77
2022/05/05 13:29:07;;;;;;;;;;;25.20;99.90;;;;;;5094956;28;19912;-77
2022/05/05 13:31:33;;;;;;;;;;;25.20;99.90;;;;;;5084666;28;20460;-77
2022/05/05 13:33:58;;;;;;;;;;;25.30;99.90;;;;;;5092892;28;19920;-77
2022/05/05 13:36:24;;;;;;;;;;;25.30;99.90;;;;;;5095991;28;19912;-77
2022/05/05 13:38:50;;;;;;;;;;;25.50;99.90;;;;;;5096088;28;19912;-77
2022/05/05 13:41:15;;;;;;;;;;;25.40;99.90;;;;;;5083193;28;19908;-77
2022/05/05 13:43:41;;;;;;;;;;;25.40;99.90;;;;;;5075262;28;19924;-77
2022/05/05 13:46:07;;;;;;;;;;;25.00;99.90;;;;;;5075880;28;20363;-76
2022/05/05 13:48:36;;;;;;;;;;;24.90;99.90;;;;;;5075813;28;20062;-78
2022/05/05 13:51:03;;;;;;;;;;;24.70;99.90;;;;;;5075998;28;20003;-77
2022/05/05 13:53:29;;;;;;;;;;;24.80;99.90;;;;;;5076731;28;20135;-77
2022/05/05 13:55:55;;;;;;;;;;;24.80;99.90;;;;;;5089449;28;20350;-78
2022/05/05 13:58:20;;;;;;;;;;;24.90;99.90;;;;;;5084481;28;19919;-75
2022/05/05 14:00:46;;;;;;;;;;;25.00;99.90;;;;;;5083406;28;19917;-74
2022/05/05 14:03:12;;;;;;;;;;;25.00;99.90;;;;;;5082052;28;19909;-74
2022/05/05 14:05:37;;;;;;;;;;;25.00;99.90;;;;;;5075492;28;20307;-74
2022/05/05 14:13:31;;;;;;;;;;;24.70;99.90;;;;;;5082984;28;19918;-89
2022/05/05 14:15:57;;;;;;;;;;;24.60;99.90;;;;;;5076003;28;19916;-89
2022/05/05 14:18:24;;;;;;;;;;;24.60;99.90;;;;;;5075213;28;20016;-89
2022/05/05 14:20:49;;;;;;;;;;;24.60;99.90;;;;;;5080073;28;19908;-89
2022/05/05 14:23:15;;;;;;;;;;;24.50;99.90;;;;;;5083748;28;20420;-89
2022/05/05 14:25:40;;;;;;;;;;;24.50;99.90;;;;;;5083755;28;20329;-89
2022/05/05 14:28:06;;;;;;;;;;;24.40;99.90;;;;;;5081267;28;19912;-71
2022/05/05 14:30:31;;;;;;;;;;;24.30;99.90;;;;;;5082805;28;19966;-72
2022/05/05 14:32:57;;;;;;;;;;;24.20;99.90;;;;;;5089340;28;19915;-72
2022/05/05 14:35:22;;;;;;;;;;;24.00;99.90;;;;;;5074376;28;20374;-72
2022/05/05 14:37:48;;;;;;;;;;;23.90;99.90;;;;;;5074286;28;20015;-72
2022/05/05 14:40:13;;;;;;;;;;;23.80;99.90;;;;;;5075087;28;20075;-72
2022/05/05 14:42:39;;;;;;;;;;;23.60;99.90;;;;;;5086246;28;19918;-82
2022/05/05 14:45:05;;;;;;;;;;;23.40;99.90;;;;;;5085087;28;19908;-77
2022/05/05 14:47:31;;;;;;;;;;;23.20;99.90;;;;;;5098465;28;20054;-82
2022/05/05 14:49:56;;;;;;;;;;;23.20;99.90;;;;;;5087509;28;19913;-77
2022/05/05 14:52:22;;;;;;;;;;;23.30;99.90;;;;;;5076129;28;20359;-78
2022/05/05 14:54:48;;;;;;;;;;;23.40;99.90;;;;;;5074441;28;19954;-78
2022/05/05 14:57:16;;;;;;;;;;;23.40;99.90;;;;;;5072674;28;19967;-82
2022/05/05 14:59:42;;;;;;;;;;;23.60;99.90;;;;;;5076793;28;19943;-75
2022/05/05 15:02:08;;;;;;;;;;;23.80;99.90;;;;;;5084241;28;19944;-77
2022/05/05 15:04:34;;;;;;;;;;;24.00;99.90;;;;;;5073976;28;19916;-77
2022/05/05 15:07:27;;;;;;;;;;;23.80;99.90;;;;;;5075393;28;20386;-78
2022/05/05 15:09:57;;;;;;;;;;;23.80;99.90;;;;;;5093868;28;19914;-77
2022/05/05 15:12:23;;;;;;;;;;;23.90;99.90;;;;;;5089938;28;19909;-77
2022/05/05 15:14:49;;;;;;;;;;;24.10;99.90;;;;;;5075375;28;19908;-83
2022/05/05 15:17:15;;;;;;;;;;;24.30;99.90;;;;;;5074210;28;19913;-83
2022/05/05 15:19:40;;;;;;;;;;;24.50;99.90;;;;;;5073795;28;20283;-83
2022/05/05 15:22:06;;;;;;;;;;;24.80;99.90;;;;;;5081294;28;19916;-83
2022/05/05 15:24:31;;;;;;;;;;;25.10;99.90;;;;;;5094231;28;19908;-84
2022/05/05 15:26:57;;;;;;;;;;;25.50;99.90;;;;;;5106372;28;20323;-83
2022/05/05 15:29:23;;;;;;;;;;;25.60;99.90;;;;;;5095853;28;19973;-83
2022/05/05 15:31:48;;;;;;;;;;;25.90;99.90;;;;;;5095987;28;19959;-84
2022/05/05 15:34:14;;;;;;;;;;;26.20;99.90;;;;;;5114129;28;19935;-83
2022/05/05 15:36:41;;;;;;;;;;;26.50;99.90;;;;;;5113816;28;19918;-84
2022/05/05 15:39:07;;;;;;;;;;;26.60;99.90;;;;;;5113818;28;19943;-84
2022/05/05 15:41:33;;;;;;;;;;;26.90;99.90;;;;;;5111790;28;19954;-84
2022/05/05 15:43:58;;;;;;;;;;;27.10;99.90;;;;;;5114186;28;20252;-83
2022/05/05 15:46:27;;;;;;;;;;;26.90;99.90;;;;;;5109523;28;20424;-78
2022/05/05 15:48:57;;;;;;;;;;;27.30;99.90;;;;;;5093835;28;19908;-78
2022/05/05 15:51:24;;;;;;;;;;;27.40;99.90;;;;;;5075692;28;20316;-78
2022/05/05 15:53:49;;;;;;;;;;;27.70;99.90;;;;;;5093753;28;20279;-77
2022/05/05 15:56:15;;;;;;;;;;;27.70;99.90;;;;;;5093599;28;19912;-78
2022/05/05 15:58:40;;;;;;;;;;;28.10;99.90;;;;;;5093596;28;20350;-78
2022/05/05 16:01:06;;;;;;;;;;;28.40;99.90;;;;;;5094007;28;19908;-83
2022/05/05 16:03:33;;;;;;;;;;;28.20;99.90;;;;;;5093616;28;19908;-83
2022/05/05 16:05:58;;;;;;;;;;;28.00;99.90;;;;;;5075489;28;19908;-83
2022/05/05 16:08:24;;;;;;;;;;;27.90;99.90;;;;;;5092931;28;20003;-83
2022/05/05 16:10:50;;;;;;;;;;;27.60;99.90;;;;;;5093379;28;20347;-83
2022/05/05 16:13:15;;;;;;;;;;;27.30;99.90;;;;;;5079682;28;19912;-83
2022/05/05 16:15:41;;;;;;;;;;;26.70;99.90;;;;;;5096334;28;20011;-78
2022/05/05 16:18:09;;;;;;;;;;;26.20;99.90;;;;;;5074614;28;21316;-78
2022/05/05 16:20:34;;;;;;;;;;;25.80;99.90;;;;;;5092932;28;19908;-77
2022/05/05 16:23:00;;;;;;;;;;;25.50;99.90;;;;;;5093242;28;19916;-78
2022/05/05 16:30:54;;;;;;;;;;;24.60;99.90;;;;;;5093549;28;19919;-77
2022/05/05 16:33:19;;;;;;;;;;;24.30;99.90;;;;;;5078692;28;19912;-77
2022/05/05 16:35:45;;;;;;;;;;;24.00;99.90;;;;;;5113169;28;19915;-75
2022/05/05 16:38:11;;;;;;;;;;;23.80;99.90;;;;;;5113527;28;19908;-77
2022/05/05 16:40:37;;;;;;;;;;;23.50;99.90;;;;;;5113040;28;19908;-77
2022/05/05 16:43:03;;;;;;;;;;;23.30;99.90;;;;;;5113239;28;19908;-76
2022/05/05 16:45:29;;;;;;;;;;;23.00;99.90;;;;;;5113836;28;20020;-83
2022/05/05 16:47:55;;;;;;;;;;;22.90;99.90;;;;;;5095247;28;19925;-84
2022/05/05 16:50:22;;;;;;;;;;;22.70;99.90;;;;;;5113484;28;19907;-83
2022/05/05 16:52:49;;;;;;;;;;;22.70;99.90;;;;;;5113494;28;20003;-84
2022/05/05 16:55:16;;;;;;;;;;;22.50;99.90;;;;;;5113344;28;19914;-84
2022/05/05 16:57:43;;;;;;;;;;;22.30;99.90;;;;;;5113296;28;19918;-83
2022/05/05 17:00:17;;;;;;;;;;;22.20;99.90;;;;;;5110548;28;19967;-77
2022/05/05 17:02:45;;;;;;;;;;;22.00;99.90;;;;;;5106636;28;19912;-78
2022/05/05 17:05:13;;;;;;;;;;;21.90;99.90;;;;;;5083105;28;19911;-77
2022/05/05 17:07:39;;;;;;;;;;;21.80;99.90;;;;;;5091199;28;20355;-79
2022/05/05 17:10:17;;;;;;;;;;;21.70;99.90;;;;;;5093558;28;19947;-79
2022/05/05 17:12:44;;;;;;;;;;;21.50;99.90;;;;;;5104033;28;19912;-78
2022/05/05 17:15:33;;;;;;;;;;;21.50;99.90;;;;;;5100286;28;19967;-79
2022/05/05 17:18:33;;;;;;;;;;;21.30;99.90;;;;;;5086889;28;19923;-87